| time (UTC) | temp F | wind direction | speed MPH | gust MPH | rain 1hr in | rain 24hr in | rain mn in | humidity % | barometer mb |
| 20260505214511 | 66 | 218 | 0.0 | 0.0 | 0.00 | 0.50 | 0.02 | 61 | 1014.5 |
| 20260505213004 | 66 | 147 | 0.0 | 1.0 | 0.00 | 0.50 | 0.02 | 60 | 1014.6 |
| 20260505211559 | 66 | 177 | 0.0 | 1.0 | 0.00 | 0.50 | 0.02 | 60 | 1014.7 |
| 20260505210058 | 66 | 232 | 0.0 | 0.0 | 0.00 | 0.50 | 0.02 | 59 | 1014.8 |
| 20260505204553 | 65 | 229 | 0.0 | 0.0 | 0.00 | 0.50 | 0.02 | 60 | 1014.8 |
| 20260505203053 | 65 | 174 | 0.0 | 0.0 | 0.00 | 0.50 | 0.02 | 61 | 1014.8 |
| 20260505201543 | 65 | 173 | 0.0 | 3.0 | 0.00 | 0.50 | 0.02 | 61 | 1014.9 |
| 20260505200042 | 67 | 177 | 0.0 | 0.0 | 0.00 | 0.50 | 0.02 | 60 | 1014.9 |
| 20260505194543 | 67 | 291 | 0.0 | 0.0 | 0.00 | 0.50 | 0.02 | 60 | 1014.9 |
| 20260505193022 | 65 | 204 | 0.0 | 0.0 | 0.00 | 0.50 | 0.02 | 60 | 1014.9 |
| 20260505191519 | 66 | 180 | 0.0 | 0.0 | 0.00 | 0.50 | 0.02 | 60 | 1015.0 |
| 20260505190013 | 65 | 224 | 0.0 | 0.0 | 0.00 | 0.50 | 0.02 | 60 | 1014.9 |
| 20260505184511 | 65 | 134 | 0.0 | 0.0 | 0.00 | 0.50 | 0.02 | 60 | 1014.9 |
| 20260505183004 | 65 | 332 | 0.0 | 0.0 | 0.00 | 0.50 | 0.02 | 59 | 1014.9 |
| 20260505181601 | 65 | 203 | 0.0 | 0.0 | 0.00 | 0.50 | 0.02 | 58 | 1014.9 |
| 20260505180056 | 65 | 195 | 0.0 | 0.0 | 0.00 | 0.50 | 0.02 | 58 | 1014.8 |
| 20260505174552 | 65 | 297 | 0.0 | 0.0 | 0.00 | 0.50 | 0.02 | 55 | 1014.8 |
| 20260505173041 | 65 | 319 | 0.0 | 0.0 | 0.00 | 0.50 | 0.02 | 32 | 1014.7 |
| 20260505171526 | 64 | 208 | 0.0 | 0.0 | 0.00 | 0.50 | 0.02 | 17 | 1014.7 |
| 20260505170013 | 65 | 186 | 0.0 | 0.0 | 0.00 | 0.50 | 0.02 | 3 | 1014.7 |
| 20260505164515 | 64 | 186 | 0.0 | 0.0 | 0.00 | 0.50 | 0.02 | 3 | 1014.7 |
| 20260505163010 | 63 | 186 | 0.0 | 0.0 | 0.00 | 0.50 | 0.02 | 3 | 1014.7 |
| 20260505161558 | 61 | 186 | 0.0 | 0.0 | 0.00 | 0.50 | 0.02 | 3 | 1014.6 |
| 20260505153101 | 57 | 186 | 0.0 | 0.0 | 0.00 | 0.50 | 0.02 | 3 | 1014.4 |
| 20260505151548 | 56 | 186 | 0.0 | 0.0 | 0.00 | 0.50 | 0.02 | 3 | 1014.2 |
| 20260505124536 | 0 | 0.0 | 0.0 | 0.00 | 0.50 | 0.02 | 1013.3 | ||
| 20260505123011 | 0 | 0.0 | 0.0 | 0.00 | 0.50 | 0.02 | 1013.3 | ||
| 20260505121506 | 0 | 0.0 | 0.0 | 0.00 | 0.50 | 0.02 | 1013.2 | ||
| 20260505120046 | 0 | 0.0 | 0.0 | 0.00 | 0.50 | 0.02 | 1013.3 | ||
| 20260505114545 | 0 | 0.0 | 0.0 | 0.00 | 0.50 | 0.02 | 1013.4 | ||
| 20260505113018 | 0 | 0.0 | 0.0 | 0.00 | 0.50 | 0.02 | 1013.3 | ||
| 20260505111515 | 0 | 0.0 | 0.0 | 0.00 | 0.50 | 0.02 | 1013.5 | ||
| 20260505110106 | 0 | 0.0 | 0.0 | 0.00 | 0.50 | 0.02 | 1013.5 | ||
| 20260505101546 | 0 | 0.0 | 0.0 | 0.00 | 0.50 | 0.02 | 1013.6 | ||
| 20260505100049 | 0 | 0.0 | 0.0 | 0.00 | 0.50 | 0.02 | 1013.6 | ||
| 20260505094537 | 54 | 204 | 0.0 | 0.0 | 0.01 | 0.50 | 0.02 | 3 | 1013.4 |
| 20260505093033 | 54 | 203 | 0.0 | 0.0 | 0.01 | 0.50 | 0.02 | 3 | 1013.4 |
| 20260505091534 | 54 | 210 | 0.0 | 0.0 | 0.01 | 0.50 | 0.02 | 3 | 1013.2 |
| 20260505090006 | 54 | 223 | 0.0 | 0.0 | 0.01 | 0.50 | 0.02 | 3 | 1014.0 |
| 20260505084502 | 54 | 217 | 0.0 | 0.0 | 0.00 | 0.49 | 0.01 | 3 | 1014.1 |
| 20260505083044 | 54 | 181 | 0.0 | 0.0 | 0.00 | 0.49 | 0.01 | 3 | 1014.0 |
| 20260505081551 | 54 | 200 | 0.0 | 0.0 | 0.00 | 0.49 | 0.01 | 3 | 1014.0 |
| 20260505080014 | 54 | 200 | 0.0 | 0.0 | 0.00 | 0.49 | 0.01 | 3 | 1014.1 |
| 20260505074510 | 54 | 200 | 0.0 | 0.0 | 0.03 | 0.49 | 0.01 | 3 | 1014.4 |
| 20260505073052 | 54 | 205 | 0.0 | 0.0 | 0.04 | 0.49 | 0.01 | 3 | 1014.2 |
| 20260505071545 | 54 | 199 | 0.0 | 0.0 | 0.10 | 0.49 | 0.01 | 3 | 1014.4 |
| 20260505070034 | 54 | 233 | 0.0 | 0.0 | 0.15 | 0.49 | 0.01 | 3 | 1014.1 |
| 20260505064524 | 54 | 177 | 0.0 | 0.0 | 0.12 | 0.46 | 0.46 | 3 | 1014.6 |
| 20260505063023 | 55 | 194 | 0.0 | 0.0 | 0.12 | 0.45 | 0.45 | 3 | 1014.1 |
| 20260505061525 | 55 | 205 | 0.0 | 0.0 | 0.05 | 0.38 | 0.38 | 3 | 1014.7 |
| 20260505060010 | 55 | 141 | 0.0 | 0.0 | 0.02 | 0.34 | 0.34 | 3 | 1014.6 |
| 20260505054513 | 55 | 211 | 0.0 | 0.0 | 0.02 | 0.33 | 0.33 | 3 | 1014.4 |
| 20260505053001 | 55 | 222 | 0.0 | 0.0 | 0.02 | 0.33 | 0.33 | 3 | 1014.5 |
| 20260505051558 | 55 | 158 | 0.0 | 0.0 | 0.02 | 0.33 | 0.33 | 3 | 1014.4 |
| 20260505041505 | 55 | 204 | 0.0 | 0.0 | 0.02 | 0.31 | 0.31 | 3 | 1014.6 |
| 20260505040044 | 55 | 104 | 0.0 | 0.0 | 0.04 | 0.31 | 0.31 | 3 | 1014.8 |
| 20260505034543 | 56 | 127 | 0.0 | 0.0 | 0.04 | 0.30 | 0.30 | 3 | 1014.6 |
| 20260505033029 | 56 | 128 | 0.0 | 0.0 | 0.05 | 0.30 | 0.30 | 3 | 1013.9 |
| 20260505031514 | 56 | 201 | 0.0 | 0.0 | 0.06 | 0.28 | 0.28 | 3 | 1013.5 |
| 20260505030109 | 57 | 198 | 0.0 | 0.0 | 0.05 | 0.27 | 0.27 | 3 | 1013.7 |
| 20260505024605 | 57 | 195 | 0.0 | 0.0 | 0.06 | 0.26 | 0.26 | 3 | 1014.0 |
| 20260505023043 | 58 | 205 | 0.0 | 0.0 | 0.06 | 0.25 | 0.25 | 3 | 1014.3 |
| 20260505021541 | 58 | 208 | 0.0 | 0.0 | 0.06 | 0.23 | 0.23 | 3 | 1014.2 |
| 20260505020016 | 58 | 214 | 0.0 | 0.0 | 0.07 | 0.22 | 0.22 | 3 | 1014.6 |
| 20260505014553 | 59 | 210 | 0.0 | 0.0 | 0.07 | 0.20 | 0.20 | 3 | 1014.5 |
| 20260505013048 | 59 | 208 | 0.0 | 0.0 | 0.08 | 0.19 | 0.19 | 3 | 1014.5 |
| 20260505011537 | 59 | 136 | 0.0 | 0.0 | 0.08 | 0.17 | 0.17 | 3 | 1014.8 |
| 20260505010023 | 60 | 211 | 0.0 | 0.0 | 0.08 | 0.15 | 0.15 | 3 | 1014.8 |
| 20260505004501 | 60 | 203 | 0.0 | 0.0 | 0.07 | 0.13 | 0.13 | 3 | 1014.7 |
| 20260505003057 | 61 | 222 | 0.0 | 0.0 | 0.06 | 0.11 | 0.11 | 3 | 1014.6 |
| 20260505001536 | 61 | 180 | 0.0 | 0.0 | 0.06 | 0.09 | 0.09 | 3 | 1014.4 |
| 20260505000031 | 62 | 226 | 0.0 | 0.0 | 0.05 | 0.07 | 0.07 | 3 | 1014.6 |
| 20260504234509 | 62 | 221 | 0.0 | 0.0 | 0.05 | 0.06 | 0.06 | 3 | 1014.6 |
| 20260504233004 | 62 | 217 | 0.0 | 0.0 | 0.05 | 0.05 | 0.05 | 3 | 1014.5 |
| 20260504231548 | 62 | 208 | 0.0 | 0.0 | 0.03 | 0.03 | 0.03 | 3 | 1014.4 |
| 20260504230044 | 62 | 191 | 0.0 | 0.0 | 0.02 | 0.02 | 0.02 | 3 | 1014.4 |
| 20260504224538 | 61 | 197 | 0.0 | 0.0 | 0.01 | 0.01 | 0.01 | 17 | 1014.5 |
| 20260504223037 | 61 | 229 | 0.0 | 0.0 | 0.00 | 0.00 | 0.00 | 44 | 1014.4 |
| 20260504221536 | 61 | 221 | 0.0 | 1.0 | 0.00 | 0.00 | 0.00 | 55 | 1014.5 |
| 20260504220025 | 62 | 219 | 0.0 | 1.0 | 0.00 | 0.00 | 0.00 | 54 | 1014.2 |